sensor_id;sensor_type;location;lat;lon;timestamp;temperature;humidity
16700;DHT22;8466;52.286;21.124;2022-08-19T00:02:11;20.00;99.90
16700;DHT22;8466;52.286;21.124;2022-08-19T00:04:40;19.90;99.90
16700;DHT22;8466;52.286;21.124;2022-08-19T00:07:09;19.90;99.90
16700;DHT22;8466;52.286;21.124;2022-08-19T00:09:40;19.90;99.90
16700;DHT22;8466;52.286;21.124;2022-08-19T00:12:08;19.80;99.90
16700;DHT22;8466;52.286;21.124;2022-08-19T00:14:38;19.80;99.90
16700;DHT22;8466;52.286;21.124;2022-08-19T00:17:08;19.70;99.90
16700;DHT22;8466;52.286;21.124;2022-08-19T00:19:37;19.70;99.90
16700;DHT22;8466;52.286;21.124;2022-08-19T00:22:07;19.60;99.90
16700;DHT22;8466;52.286;21.124;2022-08-19T00:24:38;19.60;99.90
16700;DHT22;8466;52.286;21.124;2022-08-19T00:27:16;19.60;99.90
16700;DHT22;8466;52.286;21.124;2022-08-19T00:29:52;19.60;99.90
16700;DHT22;8466;52.286;21.124;2022-08-19T00:32:21;19.60;99.90
16700;DHT22;8466;52.286;21.124;2022-08-19T00:34:50;19.50;99.90
16700;DHT22;8466;52.286;21.124;2022-08-19T00:37:20;19.40;99.90
16700;DHT22;8466;52.286;21.124;2022-08-19T00:39:51;19.40;99.90
16700;DHT22;8466;52.286;21.124;2022-08-19T00:42:21;19.40;99.90
16700;DHT22;8466;52.286;21.124;2022-08-19T00:44:50;19.30;99.90
16700;DHT22;8466;52.286;21.124;2022-08-19T00:47:19;19.30;99.90
16700;DHT22;8466;52.286;21.124;2022-08-19T00:49:50;19.30;99.90
16700;DHT22;8466;52.286;21.124;2022-08-19T00:52:22;19.20;99.90
16700;DHT22;8466;52.286;21.124;2022-08-19T00:54:53;19.20;99.90
16700;DHT22;8466;52.286;21.124;2022-08-19T00:57:26;19.10;99.90
16700;DHT22;8466;52.286;21.124;2022-08-19T00:59:57;19.10;99.90
16700;DHT22;8466;52.286;21.124;2022-08-19T01:02:30;19.00;99.90
16700;DHT22;8466;52.286;21.124;2022-08-19T01:05:03;19.00;99.90
16700;DHT22;8466;52.286;21.124;2022-08-19T01:07:33;19.00;99.90
16700;DHT22;8466;52.286;21.124;2022-08-19T01:10:09;19.00;99.90
16700;DHT22;8466;52.286;21.124;2022-08-19T01:12:39;19.00;99.90
16700;DHT22;8466;52.286;21.124;2022-08-19T01:15:11;18.90;99.90
16700;DHT22;8466;52.286;21.124;2022-08-19T01:17:40;19.00;99.90
16700;DHT22;8466;52.286;21.124;2022-08-19T01:20:12;18.90;99.90
16700;DHT22;8466;52.286;21.124;2022-08-19T01:22:45;18.90;99.90
16700;DHT22;8466;52.286;21.124;2022-08-19T01:25:16;18.90;99.90
16700;DHT22;8466;52.286;21.124;2022-08-19T01:27:49;18.90;99.90
16700;DHT22;8466;52.286;21.124;2022-08-19T01:30:22;18.90;99.90
16700;DHT22;8466;52.286;21.124;2022-08-19T01:32:52;18.80;99.90
16700;DHT22;8466;52.286;21.124;2022-08-19T01:35:22;18.80;99.90
16700;DHT22;8466;52.286;21.124;2022-08-19T01:37:55;18.80;99.90
16700;DHT22;8466;52.286;21.124;2022-08-19T01:40:28;18.80;99.90
16700;DHT22;8466;52.286;21.124;2022-08-19T01:42:58;18.80;99.90
16700;DHT22;8466;52.286;21.124;2022-08-19T01:45:30;18.80;99.90
16700;DHT22;8466;52.286;21.124;2022-08-19T01:47:59;18.80;99.90
16700;DHT22;8466;52.286;21.124;2022-08-19T01:50:29;18.80;99.90
16700;DHT22;8466;52.286;21.124;2022-08-19T01:53:00;18.70;99.90
16700;DHT22;8466;52.286;21.124;2022-08-19T01:55:35;18.70;99.90
16700;DHT22;8466;52.286;21.124;2022-08-19T01:58:09;18.70;99.90
16700;DHT22;8466;52.286;21.124;2022-08-19T02:00:39;18.70;99.90
16700;DHT22;8466;52.286;21.124;2022-08-19T02:03:08;18.60;99.90
16700;DHT22;8466;52.286;21.124;2022-08-19T02:05:44;18.60;99.90
16700;DHT22;8466;52.286;21.124;2022-08-19T02:08:25;18.60;99.90
16700;DHT22;8466;52.286;21.124;2022-08-19T02:11:20;18.60;99.90
16700;DHT22;8466;52.286;21.124;2022-08-19T02:13:50;18.60;99.90
16700;DHT22;8466;52.286;21.124;2022-08-19T02:16:20;18.60;99.90
16700;DHT22;8466;52.286;21.124;2022-08-19T02:18:50;18.60;99.90
16700;DHT22;8466;52.286;21.124;2022-08-19T02:21:23;18.60;99.90
16700;DHT22;8466;52.286;21.124;2022-08-19T02:23:55;18.60;99.90
16700;DHT22;8466;52.286;21.124;2022-08-19T02:26:24;18.60;99.90
16700;DHT22;8466;52.286;21.124;2022-08-19T02:28:54;18.60;99.90
16700;DHT22;8466;52.286;21.124;2022-08-19T02:31:26;18.60;99.90
16700;DHT22;8466;52.286;21.124;2022-08-19T02:34:03;18.60;99.90
16700;DHT22;8466;52.286;21.124;2022-08-19T02:36:36;18.60;99.90
16700;DHT22;8466;52.286;21.124;2022-08-19T02:39:16;18.60;99.90
16700;DHT22;8466;52.286;21.124;2022-08-19T02:41:44;18.60;99.90
16700;DHT22;8466;52.286;21.124;2022-08-19T02:44:14;18.60;99.90
16700;DHT22;8466;52.286;21.124;2022-08-19T02:46:57;18.60;99.90
16700;DHT22;8466;52.286;21.124;2022-08-19T02:49:26;18.60;99.90
16700;DHT22;8466;52.286;21.124;2022-08-19T02:52:00;18.60;99.90
16700;DHT22;8466;52.286;21.124;2022-08-19T02:54:30;18.60;99.90
16700;DHT22;8466;52.286;21.124;2022-08-19T02:56:59;18.60;99.90
16700;DHT22;8466;52.286;21.124;2022-08-19T02:59:30;18.60;99.90
16700;DHT22;8466;52.286;21.124;2022-08-19T03:01:58;18.60;99.90
16700;DHT22;8466;52.286;21.124;2022-08-19T03:04:27;18.60;99.90
16700;DHT22;8466;52.286;21.124;2022-08-19T03:06:56;18.60;99.90
16700;DHT22;8466;52.286;21.124;2022-08-19T03:09:38;18.50;99.90
16700;DHT22;8466;52.286;21.124;2022-08-19T03:12:09;18.60;99.90
16700;DHT22;8466;52.286;21.124;2022-08-19T03:14:38;18.60;99.90
16700;DHT22;8466;52.286;21.124;2022-08-19T03:17:06;18.60;99.90
16700;DHT22;8466;52.286;21.124;2022-08-19T03:19:35;18.60;99.90
16700;DHT22;8466;52.286;21.124;2022-08-19T03:22:05;18.60;99.90
16700;DHT22;8466;52.286;21.124;2022-08-19T03:24:35;18.60;99.90
16700;DHT22;8466;52.286;21.124;2022-08-19T03:27:06;18.60;99.90
16700;DHT22;8466;52.286;21.124;2022-08-19T03:29:37;18.70;99.90
16700;DHT22;8466;52.286;21.124;2022-08-19T03:32:09;18.60;99.90
16700;DHT22;8466;52.286;21.124;2022-08-19T03:34:58;18.70;99.90
16700;DHT22;8466;52.286;21.124;2022-08-19T03:37:27;18.70;99.90
16700;DHT22;8466;52.286;21.124;2022-08-19T03:39:56;18.70;99.90
16700;DHT22;8466;52.286;21.124;2022-08-19T03:42:26;18.80;99.90
16700;DHT22;8466;52.286;21.124;2022-08-19T03:45:15;18.80;99.90
16700;DHT22;8466;52.286;21.124;2022-08-19T03:47:44;18.80;99.90
16700;DHT22;8466;52.286;21.124;2022-08-19T03:50:12;18.90;99.90
16700;DHT22;8466;52.286;21.124;2022-08-19T03:52:41;19.00;99.90
16700;DHT22;8466;52.286;21.124;2022-08-19T03:55:13;19.00;99.90
16700;DHT22;8466;52.286;21.124;2022-08-19T03:57:43;19.10;99.90
16700;DHT22;8466;52.286;21.124;2022-08-19T04:00:13;19.20;99.90
16700;DHT22;8466;52.286;21.124;2022-08-19T04:02:42;19.30;99.90
16700;DHT22;8466;52.286;21.124;2022-08-19T04:05:27;19.40;99.90
16700;DHT22;8466;52.286;21.124;2022-08-19T04:07:56;19.50;99.90
16700;DHT22;8466;52.286;21.124;2022-08-19T04:10:26;19.60;99.90
16700;DHT22;8466;52.286;21.124;2022-08-19T04:12:57;19.60;99.90
16700;DHT22;8466;52.286;21.124;2022-08-19T04:15:25;19.70;99.90
16700;DHT22;8466;52.286;21.124;2022-08-19T04:17:55;19.80;99.90
16700;DHT22;8466;52.286;21.124;2022-08-19T04:20:24;20.00;99.90
16700;DHT22;8466;52.286;21.124;2022-08-19T04:22:53;20.20;99.90
16700;DHT22;8466;52.286;21.124;2022-08-19T04:25:21;20.40;99.90
16700;DHT22;8466;52.286;21.124;2022-08-19T04:27:50;20.60;99.90
16700;DHT22;8466;52.286;21.124;2022-08-19T04:30:20;20.80;99.90
16700;DHT22;8466;52.286;21.124;2022-08-19T04:32:49;20.90;99.90
16700;DHT22;8466;52.286;21.124;2022-08-19T04:35:18;20.90;99.90
16700;DHT22;8466;52.286;21.124;2022-08-19T04:37:50;20.90;99.90
16700;DHT22;8466;52.286;21.124;2022-08-19T04:40:19;21.00;99.90
16700;DHT22;8466;52.286;21.124;2022-08-19T04:43:05;21.00;99.90
16700;DHT22;8466;52.286;21.124;2022-08-19T04:45:36;21.00;99.90
16700;DHT22;8466;52.286;21.124;2022-08-19T04:48:10;21.10;99.90
16700;DHT22;8466;52.286;21.124;2022-08-19T04:50:53;21.20;99.90
16700;DHT22;8466;52.286;21.124;2022-08-19T04:53:25;21.40;99.90
16700;DHT22;8466;52.286;21.124;2022-08-19T04:56:06;21.70;99.90
16700;DHT22;8466;52.286;21.124;2022-08-19T04:58:37;21.80;99.90
16700;DHT22;8466;52.286;21.124;2022-08-19T05:01:07;22.20;99.90
16700;DHT22;8466;52.286;21.124;2022-08-19T05:03:37;22.50;99.90
16700;DHT22;8466;52.286;21.124;2022-08-19T05:06:10;22.70;99.90
16700;DHT22;8466;52.286;21.124;2022-08-19T05:08:40;23.00;99.90
16700;DHT22;8466;52.286;21.124;2022-08-19T05:11:12;23.30;99.90
16700;DHT22;8466;52.286;21.124;2022-08-19T05:13:41;23.60;99.90
16700;DHT22;8466;52.286;21.124;2022-08-19T05:16:12;23.90;99.90
16700;DHT22;8466;52.286;21.124;2022-08-19T05:18:42;24.10;99.90
16700;DHT22;8466;52.286;21.124;2022-08-19T05:21:29;24.40;99.90
16700;DHT22;8466;52.286;21.124;2022-08-19T05:24:16;24.60;99.90
16700;DHT22;8466;52.286;21.124;2022-08-19T05:26:48;24.70;99.90
16700;DHT22;8466;52.286;21.124;2022-08-19T05:29:19;24.80;99.90
16700;DHT22;8466;52.286;21.124;2022-08-19T05:31:51;24.80;99.90
16700;DHT22;8466;52.286;21.124;2022-08-19T05:34:25;24.80;99.90
16700;DHT22;8466;52.286;21.124;2022-08-19T05:36:57;24.70;99.90
16700;DHT22;8466;52.286;21.124;2022-08-19T05:39:28;24.70;99.90
16700;DHT22;8466;52.286;21.124;2022-08-19T05:41:59;24.50;99.90
16700;DHT22;8466;52.286;21.124;2022-08-19T05:44:31;24.60;99.90
16700;DHT22;8466;52.286;21.124;2022-08-19T05:47:04;24.50;99.90
16700;DHT22;8466;52.286;21.124;2022-08-19T05:49:33;24.40;99.90
16700;DHT22;8466;52.286;21.124;2022-08-19T05:52:04;24.30;99.90
16700;DHT22;8466;52.286;21.124;2022-08-19T05:54:34;24.30;99.90
16700;DHT22;8466;52.286;21.124;2022-08-19T05:57:03;24.30;99.90
16700;DHT22;8466;52.286;21.124;2022-08-19T05:59:32;24.40;99.90
16700;DHT22;8466;52.286;21.124;2022-08-19T06:02:06;24.50;99.90
16700;DHT22;8466;52.286;21.124;2022-08-19T06:04:35;24.50;99.90
16700;DHT22;8466;52.286;21.124;2022-08-19T06:07:04;24.50;99.90
16700;DHT22;8466;52.286;21.124;2022-08-19T06:09:38;24.60;99.90
16700;DHT22;8466;52.286;21.124;2022-08-19T06:12:25;24.70;99.90
16700;DHT22;8466;52.286;21.124;2022-08-19T06:14:56;24.70;99.90
16700;DHT22;8466;52.286;21.124;2022-08-19T06:17:29;24.80;99.90
16700;DHT22;8466;52.286;21.124;2022-08-19T06:19:59;24.80;99.90
16700;DHT22;8466;52.286;21.124;2022-08-19T06:22:28;24.90;99.90
16700;DHT22;8466;52.286;21.124;2022-08-19T06:24:56;24.90;99.90
16700;DHT22;8466;52.286;21.124;2022-08-19T06:27:25;25.00;99.90
16700;DHT22;8466;52.286;21.124;2022-08-19T06:29:54;25.00;99.90
16700;DHT22;8466;52.286;21.124;2022-08-19T06:32:23;25.10;99.90
16700;DHT22;8466;52.286;21.124;2022-08-19T06:34:53;25.10;99.90
16700;DHT22;8466;52.286;21.124;2022-08-19T06:37:22;25.00;99.90
16700;DHT22;8466;52.286;21.124;2022-08-19T06:39:51;25.00;99.90
16700;DHT22;8466;52.286;21.124;2022-08-19T06:42:20;24.90;99.90
16700;DHT22;8466;52.286;21.124;2022-08-19T06:44:50;24.90;99.90
16700;DHT22;8466;52.286;21.124;2022-08-19T06:47:21;24.90;99.90
16700;DHT22;8466;52.286;21.124;2022-08-19T06:49:57;24.90;99.90
16700;DHT22;8466;52.286;21.124;2022-08-19T06:52:29;24.90;99.90
16700;DHT22;8466;52.286;21.124;2022-08-19T06:55:01;24.90;99.90
16700;DHT22;8466;52.286;21.124;2022-08-19T06:57:33;24.90;99.90
16700;DHT22;8466;52.286;21.124;2022-08-19T07:00:04;25.00;99.90
16700;DHT22;8466;52.286;21.124;2022-08-19T07:02:39;25.10;99.90
16700;DHT22;8466;52.286;21.124;2022-08-19T07:05:12;25.10;99.90
16700;DHT22;8466;52.286;21.124;2022-08-19T07:07:42;25.30;99.90
16700;DHT22;8466;52.286;21.124;2022-08-19T07:10:13;25.30;99.90
16700;DHT22;8466;52.286;21.124;2022-08-19T07:12:42;25.50;99.90
16700;DHT22;8466;52.286;21.124;2022-08-19T07:15:12;25.60;99.90
16700;DHT22;8466;52.286;21.124;2022-08-19T07:17:42;25.70;99.90
16700;DHT22;8466;52.286;21.124;2022-08-19T07:20:15;25.80;99.90
16700;DHT22;8466;52.286;21.124;2022-08-19T07:22:44;26.00;99.90
16700;DHT22;8466;52.286;21.124;2022-08-19T07:25:13;26.20;99.90
16700;DHT22;8466;52.286;21.124;2022-08-19T07:27:44;26.30;99.90
16700;DHT22;8466;52.286;21.124;2022-08-19T07:30:20;26.40;99.90
16700;DHT22;8466;52.286;21.124;2022-08-19T07:32:52;26.50;99.90
16700;DHT22;8466;52.286;21.124;2022-08-19T07:35:23;26.60;99.90
16700;DHT22;8466;52.286;21.124;2022-08-19T07:37:52;26.60;99.90
16700;DHT22;8466;52.286;21.124;2022-08-19T07:40:21;26.60;99.90
16700;DHT22;8466;52.286;21.124;2022-08-19T07:42:50;26.60;99.90
16700;DHT22;8466;52.286;21.124;2022-08-19T07:45:19;26.60;99.90
16700;DHT22;8466;52.286;21.124;2022-08-19T07:47:48;26.60;99.90
16700;DHT22;8466;52.286;21.124;2022-08-19T07:50:18;26.70;99.90
16700;DHT22;8466;52.286;21.124;2022-08-19T07:52:49;26.70;99.90
16700;DHT22;8466;52.286;21.124;2022-08-19T07:55:25;26.70;99.90
16700;DHT22;8466;52.286;21.124;2022-08-19T07:58:10;26.70;99.90
16700;DHT22;8466;52.286;21.124;2022-08-19T08:00:40;26.80;99.90
16700;DHT22;8466;52.286;21.124;2022-08-19T08:03:12;26.90;99.90
16700;DHT22;8466;52.286;21.124;2022-08-19T08:05:41;27.00;99.90
16700;DHT22;8466;52.286;21.124;2022-08-19T08:08:29;27.10;99.90
16700;DHT22;8466;52.286;21.124;2022-08-19T08:11:18;27.20;99.90
16700;DHT22;8466;52.286;21.124;2022-08-19T08:13:50;27.30;99.90
16700;DHT22;8466;52.286;21.124;2022-08-19T08:16:27;27.30;99.90
16700;DHT22;8466;52.286;21.124;2022-08-19T08:18:58;27.40;99.90
16700;DHT22;8466;52.286;21.124;2022-08-19T08:21:27;27.40;99.90
16700;DHT22;8466;52.286;21.124;2022-08-19T08:23:57;27.50;99.90
16700;DHT22;8466;52.286;21.124;2022-08-19T08:26:26;27.60;99.90
16700;DHT22;8466;52.286;21.124;2022-08-19T08:29:00;27.60;99.90
16700;DHT22;8466;52.286;21.124;2022-08-19T08:31:40;27.60;99.90
16700;DHT22;8466;52.286;21.124;2022-08-19T08:34:09;27.60;99.90
16700;DHT22;8466;52.286;21.124;2022-08-19T08:36:41;27.60;99.90
16700;DHT22;8466;52.286;21.124;2022-08-19T08:39:13;27.70;99.90
16700;DHT22;8466;52.286;21.124;2022-08-19T08:41:51;27.70;99.90
16700;DHT22;8466;52.286;21.124;2022-08-19T08:44:23;27.80;99.90
16700;DHT22;8466;52.286;21.124;2022-08-19T08:46:58;27.80;99.90
16700;DHT22;8466;52.286;21.124;2022-08-19T08:49:33;27.80;99.90
16700;DHT22;8466;52.286;21.124;2022-08-19T08:52:06;27.80;99.90
16700;DHT22;8466;52.286;21.124;2022-08-19T08:54:39;27.90;99.90
16700;DHT22;8466;52.286;21.124;2022-08-19T08:57:26;27.90;99.90
16700;DHT22;8466;52.286;21.124;2022-08-19T09:00:06;27.90;99.90
16700;DHT22;8466;52.286;21.124;2022-08-19T09:02:42;27.90;99.90
16700;DHT22;8466;52.286;21.124;2022-08-19T09:05:18;27.80;99.90
16700;DHT22;8466;52.286;21.124;2022-08-19T09:07:59;27.90;99.90
16700;DHT22;8466;52.286;21.124;2022-08-19T09:10:33;28.00;99.90
16700;DHT22;8466;52.286;21.124;2022-08-19T09:13:21;28.10;99.90
16700;DHT22;8466;52.286;21.124;2022-08-19T09:15:56;28.10;99.90
16700;DHT22;8466;52.286;21.124;2022-08-19T09:18:39;28.20;99.90
16700;DHT22;8466;52.286;21.124;2022-08-19T09:21:08;28.30;99.90
16700;DHT22;8466;52.286;21.124;2022-08-19T09:23:37;28.40;99.90
16700;DHT22;8466;52.286;21.124;2022-08-19T09:26:11;28.50;99.90
16700;DHT22;8466;52.286;21.124;2022-08-19T09:28:43;28.50;99.90
16700;DHT22;8466;52.286;21.124;2022-08-19T09:31:18;28.50;99.90
16700;DHT22;8466;52.286;21.124;2022-08-19T09:33:48;28.60;99.90
16700;DHT22;8466;52.286;21.124;2022-08-19T09:36:21;28.60;99.90
16700;DHT22;8466;52.286;21.124;2022-08-19T09:39:06;28.60;99.90
16700;DHT22;8466;52.286;21.124;2022-08-19T09:41:44;28.80;99.90
16700;DHT22;8466;52.286;21.124;2022-08-19T09:44:15;28.60;99.90
16700;DHT22;8466;52.286;21.124;2022-08-19T09:46:48;28.60;99.90
16700;DHT22;8466;52.286;21.124;2022-08-19T09:49:19;28.60;99.90
16700;DHT22;8466;52.286;21.124;2022-08-19T09:51:52;28.70;99.90
16700;DHT22;8466;52.286;21.124;2022-08-19T09:54:26;28.70;99.90
16700;DHT22;8466;52.286;21.124;2022-08-19T09:56:59;28.70;99.90
16700;DHT22;8466;52.286;21.124;2022-08-19T09:59:33;28.80;99.90
16700;DHT22;8466;52.286;21.124;2022-08-19T10:02:03;28.80;99.90
16700;DHT22;8466;52.286;21.124;2022-08-19T10:04:37;28.90;99.90
16700;DHT22;8466;52.286;21.124;2022-08-19T10:07:23;28.90;99.90
16700;DHT22;8466;52.286;21.124;2022-08-19T10:10:03;29.00;99.90
16700;DHT22;8466;52.286;21.124;2022-08-19T10:12:44;29.10;99.90
16700;DHT22;8466;52.286;21.124;2022-08-19T10:15:17;29.20;99.90
16700;DHT22;8466;52.286;21.124;2022-08-19T10:17:55;29.20;99.90
16700;DHT22;8466;52.286;21.124;2022-08-19T10:20:29;29.20;99.90
16700;DHT22;8466;52.286;21.124;2022-08-19T10:22:58;29.30;99.90
16700;DHT22;8466;52.286;21.124;2022-08-19T10:25:32;29.30;99.90
16700;DHT22;8466;52.286;21.124;2022-08-19T10:28:05;29.30;99.90
16700;DHT22;8466;52.286;21.124;2022-08-19T10:30:50;29.40;99.90
16700;DHT22;8466;52.286;21.124;2022-08-19T10:33:25;29.40;99.90
16700;DHT22;8466;52.286;21.124;2022-08-19T10:36:17;29.40;99.90
16700;DHT22;8466;52.286;21.124;2022-08-19T10:38:59;29.40;99.90
16700;DHT22;8466;52.286;21.124;2022-08-19T10:41:32;29.20;99.90
16700;DHT22;8466;52.286;21.124;2022-08-19T10:44:07;29.50;99.90
16700;DHT22;8466;52.286;21.124;2022-08-19T10:46:41;29.50;99.90
16700;DHT22;8466;52.286;21.124;2022-08-19T10:49:19;29.50;99.90
16700;DHT22;8466;52.286;21.124;2022-08-19T10:51:54;29.70;99.90
16700;DHT22;8466;52.286;21.124;2022-08-19T10:54:47;29.70;99.90
16700;DHT22;8466;52.286;21.124;2022-08-19T10:57:48;29.70;99.90
16700;DHT22;8466;52.286;21.124;2022-08-19T11:00:31;29.70;99.90
16700;DHT22;8466;52.286;21.124;2022-08-19T11:03:00;29.70;99.90
16700;DHT22;8466;52.286;21.124;2022-08-19T11:05:29;29.80;99.90
16700;DHT22;8466;52.286;21.124;2022-08-19T11:08:06;29.80;99.90
16700;DHT22;8466;52.286;21.124;2022-08-19T11:10:50;29.90;99.90
16700;DHT22;8466;52.286;21.124;2022-08-19T11:13:21;29.90;99.90
16700;DHT22;8466;52.286;21.124;2022-08-19T11:15:58;30.00;99.90
16700;DHT22;8466;52.286;21.124;2022-08-19T11:18:35;30.10;99.90
16700;DHT22;8466;52.286;21.124;2022-08-19T11:21:12;30.10;99.90
16700;DHT22;8466;52.286;21.124;2022-08-19T11:23:44;30.20;99.90
16700;DHT22;8466;52.286;21.124;2022-08-19T11:26:16;30.20;99.90
16700;DHT22;8466;52.286;21.124;2022-08-19T11:28:45;30.20;99.70
16700;DHT22;8466;52.286;21.124;2022-08-19T11:31:18;30.20;99.90
16700;DHT22;8466;52.286;21.124;2022-08-19T11:33:50;30.20;99.70
16700;DHT22;8466;52.286;21.124;2022-08-19T11:36:25;30.30;99.80
16700;DHT22;8466;52.286;21.124;2022-08-19T11:38:54;30.30;99.10
16700;DHT22;8466;52.286;21.124;2022-08-19T11:41:24;30.30;98.70
16700;DHT22;8466;52.286;21.124;2022-08-19T11:43:53;30.40;99.10
16700;DHT22;8466;52.286;21.124;2022-08-19T11:46:25;30.40;98.40
16700;DHT22;8466;52.286;21.124;2022-08-19T11:49:00;30.40;99.00
16700;DHT22;8466;52.286;21.124;2022-08-19T11:51:30;30.40;98.70
16700;DHT22;8466;52.286;21.124;2022-08-19T11:54:00;30.40;98.20
16700;DHT22;8466;52.286;21.124;2022-08-19T11:56:29;30.50;97.90
16700;DHT22;8466;52.286;21.124;2022-08-19T11:58:58;30.50;98.30
16700;DHT22;8466;52.286;21.124;2022-08-19T12:01:33;30.40;98.20
16700;DHT22;8466;52.286;21.124;2022-08-19T12:04:01;30.40;98.00
16700;DHT22;8466;52.286;21.124;2022-08-19T12:06:32;30.50;97.70
16700;DHT22;8466;52.286;21.124;2022-08-19T12:09:05;30.60;97.60
16700;DHT22;8466;52.286;21.124;2022-08-19T12:11:34;30.60;97.40
16700;DHT22;8466;52.286;21.124;2022-08-19T12:14:04;30.60;97.40
16700;DHT22;8466;52.286;21.124;2022-08-19T12:16:35;30.70;96.70
16700;DHT22;8466;52.286;21.124;2022-08-19T12:19:15;30.70;96.80
16700;DHT22;8466;52.286;21.124;2022-08-19T12:21:49;30.80;96.80
16700;DHT22;8466;52.286;21.124;2022-08-19T12:24:18;30.80;96.70
16700;DHT22;8466;52.286;21.124;2022-08-19T12:26:50;30.80;96.40
16700;DHT22;8466;52.286;21.124;2022-08-19T12:29:21;30.70;96.10
16700;DHT22;8466;52.286;21.124;2022-08-19T12:31:59;30.80;95.50
16700;DHT22;8466;52.286;21.124;2022-08-19T12:34:31;30.80;96.10
16700;DHT22;8466;52.286;21.124;2022-08-19T12:37:02;30.80;95.70
16700;DHT22;8466;52.286;21.124;2022-08-19T12:39:34;30.80;95.50
16700;DHT22;8466;52.286;21.124;2022-08-19T12:42:04;30.90;94.80
16700;DHT22;8466;52.286;21.124;2022-08-19T12:44:36;30.90;95.10
16700;DHT22;8466;52.286;21.124;2022-08-19T12:47:11;30.90;94.30
16700;DHT22;8466;52.286;21.124;2022-08-19T12:49:43;31.00;94.90
16700;DHT22;8466;52.286;21.124;2022-08-19T12:52:21;31.00;94.30
16700;DHT22;8466;52.286;21.124;2022-08-19T12:54:50;31.00;94.30
16700;DHT22;8466;52.286;21.124;2022-08-19T12:57:21;31.00;93.90
16700;DHT22;8466;52.286;21.124;2022-08-19T13:00:00;31.10;93.50
16700;DHT22;8466;52.286;21.124;2022-08-19T13:02:33;31.10;94.40
16700;DHT22;8466;52.286;21.124;2022-08-19T13:05:06;31.00;93.70
16700;DHT22;8466;52.286;21.124;2022-08-19T13:07:38;31.10;93.80
16700;DHT22;8466;52.286;21.124;2022-08-19T13:10:09;31.00;93.50
16700;DHT22;8466;52.286;21.124;2022-08-19T13:12:39;31.00;93.00
16700;DHT22;8466;52.286;21.124;2022-08-19T13:15:10;31.00;93.20
16700;DHT22;8466;52.286;21.124;2022-08-19T13:17:42;31.00;93.10
16700;DHT22;8466;52.286;21.124;2022-08-19T13:20:11;30.90;92.50
16700;DHT22;8466;52.286;21.124;2022-08-19T13:22:40;30.90;92.70
16700;DHT22;8466;52.286;21.124;2022-08-19T13:25:10;30.90;92.50
16700;DHT22;8466;52.286;21.124;2022-08-19T13:27:39;30.90;92.70
16700;DHT22;8466;52.286;21.124;2022-08-19T13:30:10;31.00;91.90
16700;DHT22;8466;52.286;21.124;2022-08-19T13:32:58;31.10;91.70
16700;DHT22;8466;52.286;21.124;2022-08-19T13:35:48;31.10;92.00
16700;DHT22;8466;52.286;21.124;2022-08-19T13:38:20;31.10;91.70
16700;DHT22;8466;52.286;21.124;2022-08-19T13:40:50;31.10;91.70
16700;DHT22;8466;52.286;21.124;2022-08-19T13:43:20;31.10;91.70
16700;DHT22;8466;52.286;21.124;2022-08-19T13:45:50;31.10;91.50
16700;DHT22;8466;52.286;21.124;2022-08-19T13:48:22;31.10;91.10
16700;DHT22;8466;52.286;21.124;2022-08-19T13:50:54;31.10;91.90
16700;DHT22;8466;52.286;21.124;2022-08-19T13:53:25;31.20;91.00
16700;DHT22;8466;52.286;21.124;2022-08-19T13:56:00;31.20;91.40
16700;DHT22;8466;52.286;21.124;2022-08-19T13:58:34;31.20;90.70
16700;DHT22;8466;52.286;21.124;2022-08-19T14:01:06;31.30;91.20
16700;DHT22;8466;52.286;21.124;2022-08-19T14:03:40;31.20;91.30
16700;DHT22;8466;52.286;21.124;2022-08-19T14:06:16;31.20;91.50
16700;DHT22;8466;52.286;21.124;2022-08-19T14:08:47;31.20;91.10
16700;DHT22;8466;52.286;21.124;2022-08-19T14:11:20;31.30;91.00
16700;DHT22;8466;52.286;21.124;2022-08-19T14:13:50;31.40;90.80
16700;DHT22;8466;52.286;21.124;2022-08-19T14:16:19;31.40;90.90
16700;DHT22;8466;52.286;21.124;2022-08-19T14:18:51;31.40;91.50
16700;DHT22;8466;52.286;21.124;2022-08-19T14:21:22;31.40;91.80
16700;DHT22;8466;52.286;21.124;2022-08-19T14:23:54;31.40;91.70
16700;DHT22;8466;52.286;21.124;2022-08-19T14:26:23;31.40;91.50
16700;DHT22;8466;52.286;21.124;2022-08-19T14:28:53;31.40;91.40
16700;DHT22;8466;52.286;21.124;2022-08-19T14:31:26;31.40;91.00
16700;DHT22;8466;52.286;21.124;2022-08-19T14:34:02;31.40;90.90
16700;DHT22;8466;52.286;21.124;2022-08-19T14:36:35;31.40;91.40
16700;DHT22;8466;52.286;21.124;2022-08-19T14:39:07;31.40;91.60
16700;DHT22;8466;52.286;21.124;2022-08-19T14:41:40;31.40;90.80
16700;DHT22;8466;52.286;21.124;2022-08-19T14:44:14;31.40;91.00
16700;DHT22;8466;52.286;21.124;2022-08-19T14:46:45;31.40;90.70
16700;DHT22;8466;52.286;21.124;2022-08-19T14:49:20;31.40;90.80
16700;DHT22;8466;52.286;21.124;2022-08-19T14:52:01;31.40;91.00
16700;DHT22;8466;52.286;21.124;2022-08-19T14:54:30;31.40;90.20
16700;DHT22;8466;52.286;21.124;2022-08-19T14:56:59;31.40;90.00
16700;DHT22;8466;52.286;21.124;2022-08-19T14:59:28;31.40;90.20
16700;DHT22;8466;52.286;21.124;2022-08-19T15:01:57;31.40;90.20
16700;DHT22;8466;52.286;21.124;2022-08-19T15:04:48;31.40;90.20
16700;DHT22;8466;52.286;21.124;2022-08-19T15:07:26;31.40;90.20
16700;DHT22;8466;52.286;21.124;2022-08-19T15:09:56;31.40;90.60
16700;DHT22;8466;52.286;21.124;2022-08-19T15:12:25;31.50;90.60
16700;DHT22;8466;52.286;21.124;2022-08-19T15:14:53;31.50;90.50
16700;DHT22;8466;52.286;21.124;2022-08-19T15:17:23;31.50;90.00
16700;DHT22;8466;52.286;21.124;2022-08-19T15:20:19;31.50;89.50
16700;DHT22;8466;52.286;21.124;2022-08-19T15:22:48;31.50;90.20
16700;DHT22;8466;52.286;21.124;2022-08-19T15:25:18;31.50;90.10
16700;DHT22;8466;52.286;21.124;2022-08-19T15:27:47;31.40;90.00
16700;DHT22;8466;52.286;21.124;2022-08-19T15:30:20;31.30;90.40
16700;DHT22;8466;52.286;21.124;2022-08-19T15:32:50;31.20;90.50
16700;DHT22;8466;52.286;21.124;2022-08-19T15:35:22;31.10;90.30
16700;DHT22;8466;52.286;21.124;2022-08-19T15:37:52;31.00;90.60
16700;DHT22;8466;52.286;21.124;2022-08-19T15:40:25;30.90;90.40
16700;DHT22;8466;52.286;21.124;2022-08-19T15:42:54;30.80;90.80
16700;DHT22;8466;52.286;21.124;2022-08-19T15:45:25;30.80;90.60
16700;DHT22;8466;52.286;21.124;2022-08-19T15:47:59;30.80;90.50
16700;DHT22;8466;52.286;21.124;2022-08-19T15:50:30;30.80;90.80
16700;DHT22;8466;52.286;21.124;2022-08-19T15:53:01;30.60;90.80
16700;DHT22;8466;52.286;21.124;2022-08-19T15:55:31;30.50;91.50
16700;DHT22;8466;52.286;21.124;2022-08-19T15:58:02;30.40;90.60
16700;DHT22;8466;52.286;21.124;2022-08-19T16:00:57;30.40;90.80
16700;DHT22;8466;52.286;21.124;2022-08-19T16:03:47;30.30;90.80
16700;DHT22;8466;52.286;21.124;2022-08-19T16:06:44;30.20;90.70